Hlavní strana
METAR-TAF:

METAR-TAF

Letiště :

Sundsvall-Härnösand, Švédsko

zeměpisná šířka: 62-32N, zeměpisná délka: 017-27E, výška: 4 m

Aktuální stav počasí

Zpráva byla vytvořena před 36 minutami, v 12:50 UTC
Západoseverozápadní vítr 13 kt s nárazy do 23 kt, proměnlivý mezi jihozápadním a severozápadním
Teplota 8°C
Vlhkost vzduchu 61%
Tlak 1018 hPa
Viditelnost 10 km a více

METAR: ESNN 011250Z AUTO 29013G23KT 220V310 9999 BKN039/// 08/01 Q1018

Čas: 14:26 (13:26 UTC)

Předpověď počasí

Zpráva byla vytvořena před 8 hodinami a 56 minutami, v 04:30 UTC
Předpověď platná od 01 v 05 UTC do 01 v 07 UTC
Západojihozápadní vítr 7 kt s nárazy do 20 kt
Viditelnost 10 km a více
Žádná oblačnost pod 1500 m, nevyskytují se cumulonimby.

TAF: ESNN 010430Z 0105/0107 24007G20KT CAVOK

Stav a předpovědi počasí z více než 4 000 letišť (zprávy METAR a TAF).

Červené a žluté tečky na mapě představují dostupné meteorologické stanice.

Když kurzor umístíte na tečku, zobrazí se název stanice.

Pak kliknutím zobrazíte stav a předpověď počasí.

Chcete-li změnit mapu, kliknutím na zelené tlačítko se znaménkem +mapu přiblížíte, kliknutím na zelené tlačítko se znaménkem – mapu oddálíte a kliknutím na zelené šipky přejdete na sousední mapy.


METAR-TAF: